Archival Weather

Chicago O'Hare International

Chicago, Illinois (KORD)

Report from: Wednesday, March 27, 2024 11:23 AM CDT
Current time: Tuesday, May 21, 2024 12:04 PM CDT

Current weather – Weather history – Daily summaries
Weather forecast

Temperature1.1°C (34.0°F)
Wind chill-3.9°C (25.0°F)
Dew point-5.6°C (21.9°F)
Winds 11 kts (5.7 m/s, 12.7 mph) West-Southwest (250°)
Visibility10 mi. (16.1 km)
Clouds Ceiling: Broken clouds 3,000 ft. (914 m)
Altimeter30.04 in.Hg (1017 mB)
Relative humidity61 %
Density altitude-1,767 ft. (-538 m)
Remarks Automated weather observing station with precipitation discriminator
Flight conditions Visual Meteorological Conditions
Raw dataKORD 271623Z 25011KT 10SM BKN030 01/M06 A3004 RMK AO2 T00111056
An error has occurred. This application may no longer respond until reloaded. Reload 🗙